Time;durP1;ratioP1;P1;durP2;ratioP2;P2;SDS_P1;SDS_P2;PMS_P1;PMS_P2;Temp;Humidity;BMP_temperature;BMP_pressure;BME280_temperature;BME280_humidity;BME280_pressure;Samples;Min_cycle;Max_cycle;Signal;HPM_P1;HPM_P2
2021/08/19 00:02:25;;;;;;;1.40;1.30;;;18.60;74.80;;;;;;4987689;28;20092;-64
2021/08/19 00:04:51;;;;;;;1.38;1.27;;;18.60;74.70;;;;;;5002263;28;20035;-64
2021/08/19 00:07:18;;;;;;;1.33;1.20;;;18.60;74.80;;;;;;5003247;28;20149;-64
2021/08/19 00:09:44;;;;;;;1.35;1.23;;;18.50;75.00;;;;;;5003191;28;20049;-64
2021/08/19 00:12:09;;;;;;;1.90;1.17;;;18.60;75.00;;;;;;4983769;28;20034;-64
2021/08/19 00:14:36;;;;;;;1.40;1.30;;;18.60;74.90;;;;;;4985930;28;20081;-64
2021/08/19 00:17:04;;;;;;;1.20;1.08;;;18.60;74.70;;;;;;4988042;28;20037;-64
2021/08/19 00:19:29;;;;;;;1.30;1.20;;;18.60;74.60;;;;;;4988530;28;20044;-64
2021/08/19 00:21:55;;;;;;;1.30;1.20;;;18.50;74.70;;;;;;5002896;28;20030;-64
2021/08/19 00:24:21;;;;;;;1.10;1.00;;;18.60;74.80;;;;;;4987885;28;20062;-64
2021/08/19 00:26:46;;;;;;;2.85;1.25;;;18.50;74.60;;;;;;4985934;28;20453;-64
2021/08/19 00:29:12;;;;;;;2.15;1.20;;;18.50;74.60;;;;;;4986818;28;20041;-64
2021/08/19 00:31:38;;;;;;;3.83;1.00;;;18.50;74.40;;;;;;4986033;28;20062;-64
2021/08/19 00:34:03;;;;;;;1.70;1.20;;;18.50;74.20;;;;;;4988835;28;20061;-64
2021/08/19 00:36:30;;;;;;;1.45;1.27;;;18.50;74.20;;;;;;4987266;28;20100;-64
2021/08/19 00:38:56;;;;;;;1.20;1.10;;;18.40;74.30;;;;;;4984262;28;20037;-64
2021/08/19 00:41:21;;;;;;;1.40;1.10;;;18.40;74.40;;;;;;4987404;28;20038;-64
2021/08/19 00:43:49;;;;;;;1.33;1.20;;;18.40;75.30;;;;;;4984970;28;20060;-64
2021/08/19 00:46:27;;;;;;;1.30;1.20;;;18.40;74.40;;;;;;4999689;28;20030;-64
2021/08/19 00:49:06;;;;;;;1.20;1.10;;;18.40;74.60;;;;;;4986238;28;20574;-65
2021/08/19 00:51:37;;;;;;;1.25;1.10;;;18.40;74.60;;;;;;4987770;28;20387;-64
2021/08/19 00:54:11;;;;;;;1.38;0.98;;;18.40;74.70;;;;;;4988309;28;20121;-64
2021/08/19 00:56:37;;;;;;;5.40;1.10;;;18.40;75.70;;;;;;4982414;28;20129;-64
2021/08/19 00:59:08;;;;;;;1.92;1.05;;;18.50;74.50;;;;;;4985824;28;20431;-65
2021/08/19 01:01:34;;;;;;;1.70;1.20;;;18.40;74.60;;;;;;4977899;28;20053;-64
2021/08/19 01:04:00;;;;;;;1.45;1.33;;;18.50;74.40;;;;;;4988096;28;20092;-64
2021/08/19 01:06:26;;;;;;;1.88;1.00;;;18.50;75.30;;;;;;4988244;28;20042;-65
2021/08/19 01:08:53;;;;;;;1.40;1.20;;;18.50;74.50;;;;;;4986478;28;20029;-65
2021/08/19 01:11:20;;;;;;;2.15;1.40;;;18.40;74.70;;;;;;4996715;28;20097;-64
2021/08/19 01:13:47;;;;;;;1.25;1.15;;;18.50;74.70;;;;;;4987097;28;20517;-64
2021/08/19 01:16:13;;;;;;;1.80;1.35;;;18.50;74.70;;;;;;4985898;28;20042;-64
2021/08/19 01:18:42;;;;;;;1.40;1.20;;;18.50;75.50;;;;;;5002462;28;20049;-65
2021/08/19 01:21:15;;;;;;;2.53;1.38;;;18.50;74.90;;;;;;4986969;28;20030;-64
2021/08/19 01:23:41;;;;;;;2.83;1.40;;;18.50;75.30;;;;;;4986153;28;20605;-64
2021/08/19 01:26:14;;;;;;;1.35;1.10;;;18.50;74.70;;;;;;4986482;28;20145;-64
2021/08/19 01:28:40;;;;;;;1.45;1.35;;;18.50;74.70;;;;;;4985120;28;20545;-65
2021/08/19 01:31:12;;;;;;;1.40;1.30;;;18.50;74.70;;;;;;4984483;28;20153;-64
2021/08/19 01:33:41;;;;;;;2.97;1.38;;;18.50;74.80;;;;;;4987591;28;20291;-64
2021/08/19 01:36:06;;;;;;;5.65;1.48;;;18.50;74.80;;;;;;4985423;28;20039;-64
2021/08/19 01:38:34;;;;;;;2.90;1.40;;;18.50;74.70;;;;;;4984430;28;20034;-65
2021/08/19 01:41:01;;;;;;;2.15;1.38;;;18.50;75.80;;;;;;4985478;28;20034;-65
2021/08/19 01:43:28;;;;;;;1.63;1.52;;;18.50;75.10;;;;;;4984786;28;20027;-64
2021/08/19 01:46:11;;;;;;;1.67;1.58;;;18.50;75.10;;;;;;4985662;28;20039;-65
2021/08/19 01:48:38;;;;;;;3.20;1.65;;;18.40;75.40;;;;;;5000988;28;20038;-64
2021/08/19 01:51:05;;;;;;;1.85;1.63;;;18.40;75.00;;;;;;4987782;28;20088;-64
2021/08/19 01:53:31;;;;;;;1.40;1.25;;;18.40;75.20;;;;;;4999542;28;20101;-64
2021/08/19 01:55:57;;;;;;;2.65;1.55;;;18.40;75.10;;;;;;4985716;28;20046;-65
2021/08/19 01:58:23;;;;;;;1.52;1.42;;;18.40;75.20;;;;;;4984421;28;20038;-64
2021/08/19 02:00:49;;;;;;;2.30;1.52;;;18.40;75.30;;;;;;4984135;28;20053;-64
2021/08/19 02:03:15;;;;;;;1.67;1.58;;;18.40;75.30;;;;;;5001108;28;20515;-64
2021/08/19 02:05:40;;;;;;;1.45;1.35;;;18.40;75.30;;;;;;5001900;28;20045;-64
2021/08/19 02:08:08;;;;;;;1.67;1.40;;;18.40;75.10;;;;;;5002997;28;20038;-64
2021/08/19 02:10:36;;;;;;;1.92;1.60;;;18.40;75.30;;;;;;4997733;28;20035;-64
2021/08/19 02:13:03;;;;;;;1.85;1.75;;;18.40;75.60;;;;;;4986094;28;20172;-64
2021/08/19 02:15:29;;;;;;;1.88;1.77;;;18.40;75.60;;;;;;4985190;28;20034;-64
2021/08/19 02:17:54;;;;;;;2.35;1.55;;;18.40;75.70;;;;;;4986095;28;20595;-64
2021/08/19 02:20:20;;;;;;;2.85;1.60;;;18.40;75.80;;;;;;4985337;28;20042;-64
2021/08/19 02:22:49;;;;;;;1.85;1.75;;;18.40;75.70;;;;;;4985776;28;20406;-64
2021/08/19 02:25:16;;;;;;;2.03;1.55;;;18.40;75.80;;;;;;4984492;28;20030;-64
2021/08/19 02:27:42;;;;;;;1.60;1.50;;;18.40;75.90;;;;;;4986015;28;20101;-64
2021/08/19 02:30:09;;;;;;;1.70;1.60;;;18.40;75.80;;;;;;4984674;28;20042;-64
2021/08/19 02:32:34;;;;;;;3.13;1.70;;;18.40;75.90;;;;;;4984717;28;20096;-64
2021/08/19 02:35:00;;;;;;;1.73;1.58;;;18.40;76.00;;;;;;4986911;28;20042;-64
2021/08/19 02:37:26;;;;;;;1.95;1.67;;;18.40;76.10;;;;;;4984027;28;20462;-65
2021/08/19 02:39:52;;;;;;;1.70;1.60;;;18.40;76.10;;;;;;4986244;28;20042;-64
2021/08/19 02:42:17;;;;;;;1.50;1.40;;;18.40;76.10;;;;;;4984111;28;20069;-64
2021/08/19 02:44:43;;;;;;;1.52;1.42;;;18.40;76.00;;;;;;4985271;28;20038;-64
2021/08/19 02:47:09;;;;;;;3.53;1.65;;;18.40;75.90;;;;;;4985719;28;20065;-64
2021/08/19 02:49:34;;;;;;;2.00;1.90;;;18.40;76.10;;;;;;5000623;28;20045;-64
2021/08/19 02:52:00;;;;;;;2.03;1.83;;;18.40;75.80;;;;;;4986442;28;20030;-64
2021/08/19 02:54:26;;;;;;;1.75;1.65;;;18.40;75.70;;;;;;4985307;28;20114;-63
2021/08/19 02:56:51;;;;;;;1.70;1.60;;;18.40;75.80;;;;;;4985452;28;20034;-64
2021/08/19 02:59:18;;;;;;;2.72;1.67;;;18.40;76.00;;;;;;4984901;28;20505;-64
2021/08/19 03:01:44;;;;;;;1.77;1.63;;;18.50;76.10;;;;;;4981649;28;20058;-64
2021/08/19 03:04:09;;;;;;;3.78;1.88;;;18.50;76.10;;;;;;4985190;28;20117;-64
2021/08/19 03:06:35;;;;;;;1.67;1.58;;;18.50;76.00;;;;;;4985895;28;20037;-64
2021/08/19 03:09:00;;;;;;;1.77;1.67;;;18.50;76.00;;;;;;4982371;28;20082;-64
2021/08/19 03:11:26;;;;;;;2.10;1.90;;;18.50;75.90;;;;;;4983430;28;20038;-64
2021/08/19 03:13:53;;;;;;;1.80;1.50;;;18.50;75.80;;;;;;4985881;28;20432;-64
2021/08/19 03:16:19;;;;;;;1.80;1.70;;;18.50;75.90;;;;;;5000016;28;20130;-64
2021/08/19 03:18:45;;;;;;;3.17;1.88;;;18.50;75.80;;;;;;4986007;28;20106;-64
2021/08/19 03:21:11;;;;;;;2.20;1.80;;;18.50;75.80;;;;;;4986360;28;20065;-64
2021/08/19 03:23:36;;;;;;;2.70;1.98;;;18.50;75.90;;;;;;4982732;28;20532;-64
2021/08/19 03:26:05;;;;;;;1.95;1.52;;;18.50;75.70;;;;;;4984870;28;20039;-65
2021/08/19 03:28:31;;;;;;;3.03;2.30;;;18.50;75.80;;;;;;4983350;28;20065;-64
2021/08/19 03:30:58;;;;;;;2.10;1.90;;;18.50;75.90;;;;;;4983378;28;20034;-64
2021/08/19 03:33:23;;;;;;;2.28;2.08;;;18.50;75.70;;;;;;4984786;28;20457;-64
2021/08/19 03:35:49;;;;;;;2.25;2.05;;;18.50;75.80;;;;;;5000724;28;20038;-64
2021/08/19 03:38:15;;;;;;;3.17;2.28;;;18.50;76.00;;;;;;4983881;28;20121;-64
2021/08/19 03:40:41;;;;;;;2.13;1.80;;;18.50;76.00;;;;;;4984126;28;20042;-64
2021/08/19 03:43:06;;;;;;;2.85;1.58;;;18.60;76.10;;;;;;4981895;28;20045;-64
2021/08/19 03:45:32;;;;;;;1.92;1.80;;;18.60;76.00;;;;;;4985076;28;20033;-64
2021/08/19 03:47:58;;;;;;;2.00;1.70;;;18.60;76.00;;;;;;4978694;28;20046;-64
2021/08/19 03:50:23;;;;;;;2.83;1.98;;;18.60;76.00;;;;;;4999190;28;20033;-64
2021/08/19 03:52:50;;;;;;;2.15;1.65;;;18.60;76.10;;;;;;4985782;28;20549;-64
2021/08/19 03:55:15;;;;;;;3.88;2.17;;;18.60;76.00;;;;;;4998476;28;20035;-64
2021/08/19 03:57:41;;;;;;;2.70;2.10;;;18.50;75.80;;;;;;4985114;28;20097;-64
2021/08/19 04:00:08;;;;;;;2.83;1.83;;;18.50;76.00;;;;;;4983759;28;20494;-65
2021/08/19 04:02:33;;;;;;;2.35;1.88;;;18.50;76.20;;;;;;4997908;28;20561;-64
2021/08/19 04:04:59;;;;;;;2.17;1.90;;;18.50;76.30;;;;;;4986108;28;20042;-64
2021/08/19 04:07:25;;;;;;;2.05;1.90;;;18.50;76.50;;;;;;4985199;28;20117;-64
2021/08/19 04:09:50;;;;;;;2.08;1.88;;;18.50;76.50;;;;;;4985644;28;20062;-64
2021/08/19 04:12:16;;;;;;;2.30;2.00;;;18.50;76.30;;;;;;4979956;28;20108;-65
2021/08/19 04:14:42;;;;;;;2.53;2.10;;;18.50;76.30;;;;;;4988303;28;20570;-64
2021/08/19 04:17:08;;;;;;;2.35;2.08;;;18.50;76.10;;;;;;4988796;28;20030;-64
2021/08/19 04:19:33;;;;;;;2.13;1.90;;;18.50;76.20;;;;;;4987705;28;20038;-66
2021/08/19 04:21:59;;;;;;;2.78;1.90;;;18.50;76.20;;;;;;4988684;28;20038;-64
2021/08/19 04:24:25;;;;;;;2.22;1.80;;;18.50;76.10;;;;;;4987948;28;20042;-64
2021/08/19 04:26:50;;;;;;;2.28;1.83;;;18.50;76.00;;;;;;4986726;28;20034;-64
2021/08/19 04:29:16;;;;;;;2.13;1.98;;;18.60;76.00;;;;;;4988139;28;20037;-64
2021/08/19 04:31:42;;;;;;;1.80;1.58;;;18.60;75.80;;;;;;4984116;28;20041;-64
2021/08/19 04:34:07;;;;;;;2.60;1.63;;;18.60;76.00;;;;;;4988742;28;20049;-64
2021/08/19 04:36:33;;;;;;;2.03;1.75;;;18.60;76.00;;;;;;5002868;28;20157;-64
2021/08/19 04:38:59;;;;;;;2.35;1.67;;;18.60;76.00;;;;;;4988182;28;20030;-64
2021/08/19 04:41:25;;;;;;;1.90;1.80;;;18.60;75.90;;;;;;4987131;28;20568;-64
2021/08/19 04:43:50;;;;;;;2.38;1.77;;;18.60;75.80;;;;;;4985514;28;20121;-64
2021/08/19 04:46:16;;;;;;;2.03;1.80;;;18.60;75.60;;;;;;4988595;28;20082;-64
2021/08/19 04:48:42;;;;;;;2.83;1.70;;;18.70;75.60;;;;;;5001881;28;20042;-65
2021/08/19 04:51:07;;;;;;;4.65;1.83;;;18.70;75.70;;;;;;4988437;28;20034;-64
2021/08/19 04:53:33;;;;;;;3.47;1.85;;;18.70;75.70;;;;;;4986078;28;20041;-65
2021/08/19 04:55:59;;;;;;;1.88;1.60;;;18.70;75.80;;;;;;4979000;28;20197;-64
2021/08/19 04:58:27;;;;;;;3.10;1.77;;;18.70;75.60;;;;;;4986520;28;20054;-64
2021/08/19 05:00:52;;;;;;;2.65;1.60;;;18.70;75.60;;;;;;4985599;28;20038;-64
2021/08/19 05:03:18;;;;;;;2.03;1.70;;;18.70;75.40;;;;;;4988385;28;20410;-65
2021/08/19 05:05:44;;;;;;;4.10;1.77;;;18.70;76.30;;;;;;4988846;28;20502;-64
2021/08/19 05:08:10;;;;;;;2.30;1.77;;;18.70;75.30;;;;;;4987412;28;20026;-63
2021/08/19 05:10:35;;;;;;;4.10;1.85;;;18.70;75.40;;;;;;4982291;28;20427;-64
2021/08/19 05:13:01;;;;;;;5.32;2.13;;;18.70;75.40;;;;;;5003775;28;20592;-64
2021/08/19 05:15:27;;;;;;;4.93;2.22;;;18.70;75.40;;;;;;4988481;28;20034;-64
2021/08/19 05:17:52;;;;;;;3.95;2.28;;;18.70;75.30;;;;;;4983340;28;20049;-64
2021/08/19 05:20:18;;;;;;;4.60;2.28;;;18.70;75.20;;;;;;4987394;28;20044;-64
2021/08/19 05:22:43;;;;;;;9.32;2.47;;;18.70;75.10;;;;;;4986162;28;20411;-64
2021/08/19 05:25:10;;;;;;;6.30;2.20;;;18.70;75.20;;;;;;4988110;28;20026;-64
2021/08/19 05:27:36;;;;;;;9.40;2.05;;;18.70;75.10;;;;;;4986829;28;20069;-64
2021/08/19 05:30:01;;;;;;;5.05;2.15;;;18.70;75.00;;;;;;4986454;28;20125;-64
2021/08/19 05:32:27;;;;;;;11.25;2.45;;;18.70;75.00;;;;;;4986944;28;20045;-64
2021/08/19 05:34:53;;;;;;;5.38;1.83;;;18.70;75.10;;;;;;4988010;28;20050;-64
2021/08/19 05:37:18;;;;;;;8.52;2.08;;;18.70;75.10;;;;;;5002480;28;20038;-64
2021/08/19 05:39:44;;;;;;;4.13;1.70;;;18.70;75.20;;;;;;4986584;28;20042;-64
2021/08/19 05:42:09;;;;;;;2.42;1.48;;;18.70;75.30;;;;;;4987902;28;20085;-64
2021/08/19 05:44:36;;;;;;;4.00;1.67;;;18.70;75.30;;;;;;4985184;28;20533;-64
2021/08/19 05:47:05;;;;;;;3.22;1.88;;;18.70;75.40;;;;;;4982669;28;20051;-64
2021/08/19 05:49:41;;;;;;;2.40;1.85;;;18.70;75.60;;;;;;4987576;28;20042;-64
2021/08/19 05:52:07;;;;;;;1.85;1.35;;;18.70;75.50;;;;;;4983639;28;20970;-64
2021/08/19 05:54:35;;;;;;;3.03;1.38;;;18.70;75.30;;;;;;4983872;28;20639;-64
2021/08/19 05:57:01;;;;;;;3.00;1.30;;;18.70;75.20;;;;;;4986958;28;20046;-64
2021/08/19 05:59:26;;;;;;;1.45;1.20;;;18.70;75.10;;;;;;4987196;28;20073;-64
2021/08/19 06:01:52;;;;;;;1.98;1.10;;;18.80;75.30;;;;;;4983241;28;20042;-65
2021/08/19 06:04:18;;;;;;;1.30;1.20;;;18.80;74.90;;;;;;4986135;28;20030;-64
2021/08/19 06:06:44;;;;;;;1.27;1.17;;;18.80;74.80;;;;;;4986307;28;20038;-64
2021/08/19 06:09:10;;;;;;;2.65;1.35;;;18.80;74.70;;;;;;4984783;28;20037;-64
2021/08/19 06:11:35;;;;;;;1.65;1.30;;;18.90;74.70;;;;;;4981092;28;20030;-64
2021/08/19 06:14:01;;;;;;;1.38;1.20;;;18.90;74.80;;;;;;4986245;28;20030;-65
2021/08/19 06:16:27;;;;;;;1.25;1.10;;;18.90;74.60;;;;;;4984892;28;20498;-64
2021/08/19 06:18:52;;;;;;;1.25;1.15;;;18.90;74.60;;;;;;4984840;28;20523;-64
2021/08/19 06:21:18;;;;;;;1.75;1.23;;;18.90;74.50;;;;;;4986536;28;20068;-64
2021/08/19 06:23:43;;;;;;;2.38;1.20;;;18.90;74.40;;;;;;4984660;28;20537;-64
2021/08/19 06:26:09;;;;;;;1.02;0.93;;;19.00;74.40;;;;;;4984852;28;20038;-64
2021/08/19 06:28:35;;;;;;;1.88;1.05;;;19.00;74.50;;;;;;4984642;28;20034;-64
2021/08/19 06:31:00;;;;;;;2.38;1.10;;;19.00;74.80;;;;;;4980800;28;20038;-64
2021/08/19 06:33:26;;;;;;;1.85;1.13;;;19.10;74.90;;;;;;4999396;28;20113;-64
2021/08/19 06:35:52;;;;;;;2.72;1.33;;;19.10;74.90;;;;;;4984496;28;20042;-64
2021/08/19 06:38:17;;;;;;;4.40;1.27;;;19.10;75.10;;;;;;4999384;28;20042;-64
2021/08/19 06:40:43;;;;;;;2.05;1.48;;;19.10;75.10;;;;;;4983756;28;20693;-64
2021/08/19 06:43:09;;;;;;;1.88;1.50;;;19.20;75.30;;;;;;4984890;28;20715;-64
2021/08/19 06:45:35;;;;;;;1.50;1.40;;;19.20;75.10;;;;;;4984982;28;20038;-64
2021/08/19 06:48:01;;;;;;;1.38;1.27;;;19.20;75.10;;;;;;4983829;28;20457;-64
2021/08/19 06:50:26;;;;;;;1.50;1.40;;;19.30;75.30;;;;;;4983277;28;20076;-64
2021/08/19 06:52:52;;;;;;;1.80;1.70;;;19.30;75.20;;;;;;4999549;28;20391;-64
2021/08/19 06:55:18;;;;;;;1.98;1.50;;;19.40;75.00;;;;;;4985662;28;20398;-64
2021/08/19 06:57:43;;;;;;;1.50;1.40;;;19.40;75.00;;;;;;5001405;28;20587;-64
2021/08/19 07:00:10;;;;;;;1.45;1.30;;;19.40;74.80;;;;;;4985586;28;20034;-64
2021/08/19 07:02:37;;;;;;;1.40;1.30;;;19.40;74.60;;;;;;4990142;28;20042;-64
2021/08/19 07:05:03;;;;;;;3.47;1.20;;;19.50;74.20;;;;;;4982767;28;20022;-64
2021/08/19 07:07:29;;;;;;;1.48;1.35;;;19.50;74.10;;;;;;4983503;28;20026;-64
2021/08/19 07:09:56;;;;;;;1.67;1.08;;;19.50;74.20;;;;;;4981801;28;20022;-65
2021/08/19 07:12:22;;;;;;;1.08;0.90;;;19.50;73.90;;;;;;4975966;28;20080;-65
2021/08/19 07:14:48;;;;;;;1.00;1.00;;;19.60;73.70;;;;;;4978739;28;20100;-66
2021/08/19 07:17:14;;;;;;;1.85;1.25;;;19.60;73.40;;;;;;4957135;28;20054;-65
2021/08/19 07:19:39;;;;;;;1.48;1.00;;;19.70;73.20;;;;;;4968297;28;20573;-65
2021/08/19 07:22:05;;;;;;;1.08;0.93;;;19.70;73.10;;;;;;4973824;28;20034;-65
2021/08/19 07:24:31;;;;;;;1.00;0.80;;;19.70;73.00;;;;;;4994554;28;20046;-65
2021/08/19 07:26:56;;;;;;;1.00;0.90;;;19.80;72.80;;;;;;4989077;28;20053;-65
2021/08/19 07:29:22;;;;;;;0.80;0.80;;;19.80;72.30;;;;;;4975089;28;20046;-64
2021/08/19 07:31:47;;;;;;;0.80;0.80;;;19.90;72.10;;;;;;4974637;28;20182;-63
2021/08/19 07:34:13;;;;;;;1.08;0.88;;;19.90;72.00;;;;;;4969712;28;20117;-65
2021/08/19 07:36:39;;;;;;;1.13;0.80;;;20.00;71.10;;;;;;4969790;28;20038;-65
2021/08/19 07:39:05;;;;;;;1.20;0.82;;;20.00;71.10;;;;;;4987495;28;20237;-65
2021/08/19 07:41:32;;;;;;;1.60;0.60;;;20.00;71.20;;;;;;4971516;28;20041;-65
2021/08/19 07:43:58;;;;;;;0.50;0.50;;;20.10;70.90;;;;;;4976387;28;20082;-64
2021/08/19 07:46:24;;;;;;;0.50;0.40;;;20.10;70.40;;;;;;4974117;28;20045;-65
2021/08/19 07:48:49;;;;;;;2.08;0.60;;;20.20;70.10;;;;;;4971154;28;20042;-65
2021/08/19 07:51:16;;;;;;;1.38;0.50;;;20.10;69.80;;;;;;4977611;28;20038;-65
2021/08/19 07:53:43;;;;;;;0.45;0.32;;;20.20;69.80;;;;;;4983650;28;20454;-65
2021/08/19 07:56:09;;;;;;;0.50;0.50;;;20.20;69.90;;;;;;4990673;28;20038;-65
2021/08/19 07:58:34;;;;;;;1.50;0.50;;;20.30;69.50;;;;;;4977975;28;20650;-65
2021/08/19 08:01:00;;;;;;;0.82;0.47;;;20.30;69.20;;;;;;4979878;28;20505;-65
2021/08/19 08:03:26;;;;;;;0.75;0.43;;;20.30;69.30;;;;;;4977392;28;20035;-65
2021/08/19 08:05:52;;;;;;;0.60;0.50;;;20.40;69.30;;;;;;4985223;28;20074;-66
2021/08/19 08:08:17;;;;;;;1.27;0.60;;;20.40;69.00;;;;;;4978718;28;20043;-64
2021/08/19 08:10:43;;;;;;;1.02;0.60;;;20.50;69.00;;;;;;4985571;28;20049;-65
2021/08/19 08:13:11;;;;;;;0.70;0.70;;;20.50;68.60;;;;;;4984358;28;20335;-65
2021/08/19 08:15:38;;;;;;;0.60;0.60;;;20.60;67.90;;;;;;4979484;28;20682;-65
2021/08/19 08:18:04;;;;;;;1.00;0.80;;;20.50;67.80;;;;;;4999954;28;20486;-64
2021/08/19 08:20:31;;;;;;;0.85;0.70;;;20.60;67.80;;;;;;4976508;28;20035;-65
2021/08/19 08:22:57;;;;;;;0.60;0.60;;;20.60;67.30;;;;;;4980752;28;20070;-65
2021/08/19 08:25:23;;;;;;;0.77;0.57;;;20.60;67.40;;;;;;4981994;28;20525;-65
2021/08/19 08:28:05;;;;;;;0.60;0.60;;;20.60;67.40;;;;;;4973995;28;20042;-65
2021/08/19 08:30:35;;;;;;;0.65;0.65;;;20.70;66.30;;;;;;4980914;28;20034;-65
2021/08/19 08:33:02;;;;;;;0.93;0.60;;;20.70;67.10;;;;;;4983704;28;20057;-65
2021/08/19 08:35:30;;;;;;;1.48;0.60;;;20.80;67.70;;;;;;4977281;28;20117;-65
2021/08/19 08:37:56;;;;;;;1.02;0.60;;;20.80;66.60;;;;;;4979698;28;20032;-65
2021/08/19 08:40:23;;;;;;;0.85;0.63;;;20.90;66.70;;;;;;4977200;28;20032;-64
2021/08/19 08:42:49;;;;;;;5.82;0.60;;;20.90;66.40;;;;;;4980955;28;20378;-65
2021/08/19 08:45:16;;;;;;;0.75;0.60;;;21.00;66.20;;;;;;4982735;28;20104;-65
2021/08/19 08:47:45;;;;;;;0.80;0.80;;;21.00;66.00;;;;;;4976662;28;20181;-64
2021/08/19 08:50:11;;;;;;;0.90;0.75;;;21.10;65.50;;;;;;4980279;28;20061;-65
2021/08/19 08:52:38;;;;;;;0.88;0.60;;;21.10;65.50;;;;;;4979956;28;20063;-64
2021/08/19 08:55:04;;;;;;;0.63;0.63;;;21.10;65.40;;;;;;4979583;28;20034;-65
2021/08/19 08:57:34;;;;;;;0.50;0.50;;;21.20;65.90;;;;;;4974179;28;20073;-65
2021/08/19 08:59:59;;;;;;;1.95;0.77;;;21.20;65.70;;;;;;4995025;28;20069;-64
2021/08/19 09:02:26;;;;;;;1.02;0.80;;;21.30;65.70;;;;;;4995343;28;20027;-64
2021/08/19 09:05:18;;;;;;;2.17;0.70;;;21.30;65.10;;;;;;4980728;28;20409;-64
2021/08/19 09:07:48;;;;;;;2.08;0.50;;;21.40;63.60;;;;;;4980494;28;20355;-64
2021/08/19 09:10:17;;;;;;;1.92;0.50;;;21.40;64.80;;;;;;4982945;28;20049;-65
2021/08/19 09:12:43;;;;;;;0.60;0.60;;;21.60;64.80;;;;;;4982162;28;20442;-65
2021/08/19 09:15:14;;;;;;;0.77;0.50;;;21.60;64.60;;;;;;4984890;28;20034;-65
2021/08/19 09:17:54;;;;;;;1.70;0.70;;;21.70;64.00;;;;;;4986091;28;20045;-65
2021/08/19 09:20:22;;;;;;;2.05;0.93;;;21.80;64.00;;;;;;4987003;28;20239;-65
2021/08/19 09:22:52;;;;;;;3.05;0.65;;;21.80;63.60;;;;;;4986195;28;20038;-65
2021/08/19 09:25:26;;;;;;;0.90;0.85;;;21.90;63.10;;;;;;4986369;28;20041;-64
2021/08/19 09:28:39;;;;;;;0.82;0.70;;;21.90;63.00;;;;;;4987386;28;20043;-65
2021/08/19 09:31:07;;;;;;;1.15;0.90;;;22.00;63.10;;;;;;4982173;28;20038;-65
2021/08/19 09:33:35;;;;;;;0.70;0.70;;;22.00;62.60;;;;;;4987055;28;20062;-65
2021/08/19 09:36:06;;;;;;;0.80;0.80;;;22.10;62.30;;;;;;4984792;28;20030;-65
2021/08/19 09:38:37;;;;;;;0.88;0.70;;;22.00;61.00;;;;;;4983012;28;20063;-65
2021/08/19 09:41:12;;;;;;;0.95;0.63;;;22.00;61.10;;;;;;4985930;28;20085;-65
2021/08/19 09:43:50;;;;;;;2.08;0.60;;;22.00;61.50;;;;;;4988820;28;20054;-64
2021/08/19 09:46:28;;;;;;;0.60;0.60;;;22.00;61.70;;;;;;4984433;28;20035;-65
2021/08/19 09:48:54;;;;;;;1.27;0.55;;;22.10;61.50;;;;;;4979953;28;20570;-65
2021/08/19 09:51:22;;;;;;;0.65;0.65;;;22.10;61.90;;;;;;4973522;28;20062;-64
2021/08/19 09:53:53;;;;;;;0.70;0.70;;;22.20;61.80;;;;;;4972087;28;20043;-64
2021/08/19 09:56:49;;;;;;;0.60;0.60;;;22.20;61.20;;;;;;4973202;28;20038;-65
2021/08/19 09:59:28;;;;;;;0.93;0.60;;;22.30;59.90;;;;;;4975934;28;20034;-65
2021/08/19 10:01:57;;;;;;;0.73;0.50;;;22.40;60.50;;;;;;4969456;28;20517;-64
2021/08/19 10:04:25;;;;;;;0.77;0.50;;;22.50;60.00;;;;;;4982455;28;20069;-64
2021/08/19 10:06:52;;;;;;;0.45;0.45;;;22.50;59.90;;;;;;4970488;28;20551;-65
2021/08/19 10:09:18;;;;;;;0.70;0.60;;;22.60;60.10;;;;;;4984827;28;20034;-65
2021/08/19 10:11:45;;;;;;;0.60;0.57;;;22.70;59.50;;;;;;4976923;28;20033;-65
2021/08/19 10:14:30;;;;;;;0.40;0.40;;;22.70;59.40;;;;;;4998669;28;20121;-65
2021/08/19 10:16:57;;;;;;;;;;;22.80;58.30;;;;;;4984485;28;20769;-65
2021/08/19 10:19:30;;;;;;;0.50;0.50;;;22.80;58.90;;;;;;4976908;28;19914;-64
2021/08/19 10:22:06;;;;;;;0.70;0.70;;;22.90;58.70;;;;;;4985837;28;20520;-65
2021/08/19 10:24:36;;;;;;;2.15;0.52;;;22.90;58.40;;;;;;4985701;28;20034;-64
2021/08/19 10:27:23;;;;;;;0.68;0.57;;;23.00;59.10;;;;;;4979797;28;20621;-65
2021/08/19 10:29:54;;;;;;;0.70;0.55;;;23.00;57.50;;;;;;4985782;28;20045;-65
2021/08/19 10:32:27;;;;;;;0.70;0.50;;;23.00;57.90;;;;;;4977589;28;20068;-65
2021/08/19 10:34:59;;;;;;;1.35;0.65;;;23.00;58.40;;;;;;4980651;28;20065;-65
2021/08/19 10:40:25;;;;;;;0.60;0.60;;;23.00;56.50;;;;;;4987721;28;20027;-65
2021/08/19 10:42:53;;;;;;;1.52;0.50;;;23.00;57.10;;;;;;4979742;28;20062;-65
2021/08/19 10:45:42;;;;;;;0.60;0.60;;;23.00;58.00;;;;;;4986469;28;20548;-65
2021/08/19 10:48:08;;;;;;;1.23;0.50;;;23.00;57.00;;;;;;4978744;28;20043;-65
2021/08/19 10:50:36;;;;;;;0.57;0.57;;;23.00;58.20;;;;;;4981353;28;20033;-65
2021/08/19 10:53:28;;;;;;;0.60;0.50;;;23.00;57.10;;;;;;4983416;28;20062;-65
2021/08/19 10:55:56;;;;;;;0.50;0.50;;;23.00;56.10;;;;;;4984712;28;20031;-65
2021/08/19 10:58:24;;;;;;;0.70;0.70;;;23.00;57.10;;;;;;4975458;28;20029;-65
2021/08/19 11:00:51;;;;;;;0.70;0.70;;;23.00;57.20;;;;;;4984278;28;20057;-65
2021/08/19 11:03:49;;;;;;;1.13;0.70;;;22.90;57.20;;;;;;4990825;28;20039;-65
2021/08/19 11:06:20;;;;;;;1.98;0.68;;;22.90;55.60;;;;;;4982738;28;20037;-65
2021/08/19 11:08:54;;;;;;;0.50;0.50;;;22.90;57.00;;;;;;4983885;28;20026;-65
2021/08/19 11:11:26;;;;;;;1.02;0.90;;;22.90;58.00;;;;;;4990093;28;20045;-65
2021/08/19 11:14:08;;;;;;;0.73;0.73;;;22.90;56.60;;;;;;4984120;28;20579;-65
2021/08/19 11:16:36;;;;;;;0.80;0.80;;;22.90;56.60;;;;;;4984275;28;20034;-64
2021/08/19 11:19:21;;;;;;;0.85;0.60;;;22.90;57.20;;;;;;4976065;28;20306;-65
2021/08/19 11:22:04;;;;;;;0.53;0.53;;;22.90;56.10;;;;;;4983370;28;20093;-65
2021/08/19 11:24:32;;;;;;;0.63;0.63;;;22.80;56.30;;;;;;4984247;28;20390;-65
2021/08/19 11:27:07;;;;;;;0.85;0.70;;;22.80;57.30;;;;;;4978605;28;20034;-65
2021/08/19 11:29:44;;;;;;;0.70;0.70;;;22.80;57.60;;;;;;4977672;28;20713;-65
2021/08/19 11:32:16;;;;;;;1.17;0.90;;;22.80;57.10;;;;;;4974123;28;20026;-64
2021/08/19 11:34:50;;;;;;;0.90;0.90;;;22.80;57.70;;;;;;4964458;28;22890;-65
2021/08/19 11:37:34;;;;;;;1.00;0.75;;;22.80;57.00;;;;;;4972290;28;20510;-65
2021/08/19 11:40:00;;;;;;;0.90;0.80;;;22.80;57.00;;;;;;4970313;28;20035;-65
2021/08/19 11:42:28;;;;;;;0.70;0.70;;;22.80;57.50;;;;;;4993215;28;20462;-65
2021/08/19 11:45:22;;;;;;;1.05;0.80;;;22.90;58.00;;;;;;4976830;28;20037;-65
2021/08/19 11:47:50;;;;;;;1.23;0.50;;;23.00;57.50;;;;;;4978208;28;20031;-65
2021/08/19 11:50:24;;;;;;;0.63;0.63;;;23.00;57.50;;;;;;4973264;28;20039;-65
2021/08/19 11:52:50;;;;;;;0.55;0.55;;;23.10;57.00;;;;;;4975983;28;20431;-65
2021/08/19 11:55:29;;;;;;;1.75;0.70;;;23.20;57.70;;;;;;4966003;28;20093;-65
2021/08/19 11:58:33;;;;;;;1.92;0.75;;;23.30;56.60;;;;;;4976438;28;20035;-65
2021/08/19 12:01:05;;;;;;;1.77;0.68;;;23.40;56.70;;;;;;4974503;28;20121;-65
2021/08/19 12:03:39;;;;;;;0.90;0.70;;;23.40;57.00;;;;;;4976576;28;20034;-65
2021/08/19 12:06:10;;;;;;;0.88;0.70;;;23.50;56.50;;;;;;4977101;28;20031;-65
2021/08/19 12:08:38;;;;;;;1.20;0.90;;;23.60;56.60;;;;;;4975589;28;20170;-65
2021/08/19 12:11:08;;;;;;;0.65;0.65;;;23.60;56.40;;;;;;4979495;28;20150;-65
2021/08/19 12:13:35;;;;;;;1.13;0.73;;;23.70;56.10;;;;;;4981487;28;20759;-65
2021/08/19 12:16:01;;;;;;;1.55;0.70;;;23.80;56.10;;;;;;4990225;28;20609;-65
2021/08/19 12:18:27;;;;;;;1.23;0.85;;;23.80;56.30;;;;;;4968459;28;20380;-65
2021/08/19 12:21:28;;;;;;;1.77;0.90;;;23.80;56.50;;;;;;4967925;28;20090;-64
2021/08/19 12:24:07;;;;;;;1.25;0.80;;;23.90;55.70;;;;;;4956045;28;20573;-65
2021/08/19 12:26:33;;;;;;;4.65;1.50;;;23.90;55.00;;;;;;4965017;28;20414;-65
2021/08/19 12:28:59;;;;;;;1.55;0.93;;;24.00;55.70;;;;;;4964446;28;20034;-65
2021/08/19 12:31:43;;;;;;;0.70;0.70;;;24.00;55.90;;;;;;4966269;28;20034;-65
2021/08/19 12:34:09;;;;;;;0.90;0.90;;;24.00;54.60;;;;;;4966541;28;20652;-64
2021/08/19 12:36:35;;;;;;;0.90;0.90;;;24.00;55.30;;;;;;4964796;28;20038;-65
2021/08/19 12:39:43;;;;;;;2.38;1.30;;;24.10;55.00;;;;;;4967367;28;20027;-65
2021/08/19 12:42:10;;;;;;;1.00;0.90;;;24.10;54.50;;;;;;4975440;28;20039;-64
2021/08/19 12:44:38;;;;;;;0.88;0.88;;;24.10;55.20;;;;;;4984406;28;20115;-65
2021/08/19 12:47:04;;;;;;;2.40;0.80;;;24.20;54.90;;;;;;4979961;28;20120;-65
2021/08/19 12:49:31;;;;;;;0.90;0.90;;;24.20;55.10;;;;;;4987818;28;20501;-65
2021/08/19 12:52:15;;;;;;;1.45;0.85;;;24.30;55.10;;;;;;4977657;28;20038;-65
2021/08/19 12:55:00;;;;;;;1.00;1.00;;;24.40;53.60;;;;;;4983442;28;20045;-65
2021/08/19 12:57:33;;;;;;;1.20;1.08;;;24.40;54.50;;;;;;4987670;28;20026;-65
2021/08/19 13:00:00;;;;;;;3.67;2.10;;;24.40;54.20;;;;;;4985517;28;20034;-65